sensor_id;sensor_type;location;lat;lon;timestamp;pressure;altitude;pressure_sealevel;temperature;humidity
73870;BME280;64924;42.140;24.762;2023-04-12T00:02:13;98558.75;;;14.10;42.46
73870;BME280;64924;42.140;24.762;2023-04-12T00:04:38;98553.81;;;14.12;42.33
73870;BME280;64924;42.140;24.762;2023-04-12T00:07:04;98540.25;;;14.00;42.17
73870;BME280;64924;42.140;24.762;2023-04-12T00:09:31;98546.97;;;14.10;42.17
73870;BME280;64924;42.140;24.762;2023-04-12T00:11:57;98539.94;;;14.14;42.28
73870;BME280;64924;42.140;24.762;2023-04-12T00:14:26;98553.34;;;14.15;42.07
73870;BME280;64924;42.140;24.762;2023-04-12T00:16:52;98553.66;;;14.02;42.22
73870;BME280;64924;42.140;24.762;2023-04-12T00:19:18;98559.72;;;14.04;42.50
73870;BME280;64924;42.140;24.762;2023-04-12T00:21:43;98556.97;;;14.04;42.52
73870;BME280;64924;42.140;24.762;2023-04-12T00:24:09;98556.66;;;14.00;42.29
73870;BME280;64924;42.140;24.762;2023-04-12T00:26:35;98554.00;;;14.05;42.04
73870;BME280;64924;42.140;24.762;2023-04-12T00:29:00;98526.81;;;13.82;42.40
73870;BME280;64924;42.140;24.762;2023-04-12T00:31:26;98514.06;;;13.71;42.60
73870;BME280;64924;42.140;24.762;2023-04-12T00:33:51;98553.81;;;13.95;42.52
73870;BME280;64924;42.140;24.762;2023-04-12T00:36:17;98545.19;;;13.87;42.47
73870;BME280;64924;42.140;24.762;2023-04-12T00:38:43;98550.41;;;13.88;42.82
73870;BME280;64924;42.140;24.762;2023-04-12T00:41:11;98533.44;;;13.86;42.86
73870;BME280;64924;42.140;24.762;2023-04-12T00:43:36;98526.13;;;13.75;42.96
73870;BME280;64924;42.140;24.762;2023-04-12T00:46:02;98531.53;;;13.87;42.53
73870;BME280;64924;42.140;24.762;2023-04-12T00:48:28;98513.00;;;13.89;42.34
73870;BME280;64924;42.140;24.762;2023-04-12T00:50:55;98517.63;;;13.88;42.56
73870;BME280;64924;42.140;24.762;2023-04-12T00:53:22;98525.34;;;13.91;42.47
73870;BME280;64924;42.140;24.762;2023-04-12T00:55:49;98518.72;;;13.87;42.38
73870;BME280;64924;42.140;24.762;2023-04-12T00:58:15;98527.00;;;13.92;42.78
73870;BME280;64924;42.140;24.762;2023-04-12T01:00:42;98521.94;;;13.84;42.89
73870;BME280;64924;42.140;24.762;2023-04-12T01:03:16;98511.72;;;13.80;42.85
73870;BME280;64924;42.140;24.762;2023-04-12T01:10:49;98504.56;;;13.74;42.74
73870;BME280;64924;42.140;24.762;2023-04-12T01:18:51;98505.88;;;13.88;42.50
73870;BME280;64924;42.140;24.762;2023-04-12T01:30:06;98485.00;;;13.65;43.54
73870;BME280;64924;42.140;24.762;2023-04-12T01:32:33;98492.38;;;13.64;43.56
73870;BME280;64924;42.140;24.762;2023-04-12T01:35:00;98483.78;;;13.73;43.49
73870;BME280;64924;42.140;24.762;2023-04-12T01:37:27;98476.66;;;13.71;43.85
73870;BME280;64924;42.140;24.762;2023-04-12T01:39:53;98481.59;;;13.75;43.40
73870;BME280;64924;42.140;24.762;2023-04-12T01:42:19;98481.94;;;13.78;43.42
73870;BME280;64924;42.140;24.762;2023-04-12T01:44:45;98473.00;;;13.66;43.39
73870;BME280;64924;42.140;24.762;2023-04-12T01:47:11;98460.94;;;13.62;43.83
73870;BME280;64924;42.140;24.762;2023-04-12T01:49:48;98469.47;;;13.82;43.39
73870;BME280;64924;42.140;24.762;2023-04-12T01:52:18;98490.22;;;13.83;43.26
73870;BME280;64924;42.140;24.762;2023-04-12T01:54:48;98485.25;;;13.80;43.70
73870;BME280;64924;42.140;24.762;2023-04-12T01:57:17;98454.63;;;13.61;43.66
73870;BME280;64924;42.140;24.762;2023-04-12T01:59:45;98468.03;;;13.63;43.92
73870;BME280;64924;42.140;24.762;2023-04-12T02:02:13;98494.94;;;13.71;43.98
73870;BME280;64924;42.140;24.762;2023-04-12T02:04:40;98448.44;;;13.37;44.41
73870;BME280;64924;42.140;24.762;2023-04-12T02:07:06;98503.53;;;13.63;44.44
73870;BME280;64924;42.140;24.762;2023-04-12T02:09:37;98492.13;;;13.66;44.74
73870;BME280;64924;42.140;24.762;2023-04-12T02:12:03;98486.94;;;13.53;44.89
73870;BME280;64924;42.140;24.762;2023-04-12T02:14:29;98488.50;;;13.49;44.93
73870;BME280;64924;42.140;24.762;2023-04-12T02:16:56;98496.09;;;13.47;45.07
73870;BME280;64924;42.140;24.762;2023-04-12T02:19:22;98477.94;;;13.52;45.03
73870;BME280;64924;42.140;24.762;2023-04-12T02:21:49;98494.50;;;13.62;45.03
73870;BME280;64924;42.140;24.762;2023-04-12T02:24:15;98498.69;;;13.53;45.06
73870;BME280;64924;42.140;24.762;2023-04-12T02:26:41;98455.75;;;13.20;44.88
73870;BME280;64924;42.140;24.762;2023-04-12T02:29:08;98491.34;;;13.54;44.62
73870;BME280;64924;42.140;24.762;2023-04-12T02:31:36;98444.09;;;13.36;44.67
73870;BME280;64924;42.140;24.762;2023-04-12T02:34:04;98490.72;;;13.63;44.33
73870;BME280;64924;42.140;24.762;2023-04-12T02:36:29;98483.84;;;13.61;44.34
73870;BME280;64924;42.140;24.762;2023-04-12T02:38:55;98490.56;;;13.70;44.19
73870;BME280;64924;42.140;24.762;2023-04-12T02:41:21;98492.81;;;13.73;44.12
73870;BME280;64924;42.140;24.762;2023-04-12T02:43:47;98480.78;;;13.74;43.66
73870;BME280;64924;42.140;24.762;2023-04-12T02:46:21;98472.28;;;13.87;43.50
73870;BME280;64924;42.140;24.762;2023-04-12T02:48:48;98472.59;;;13.74;43.69
73870;BME280;64924;42.140;24.762;2023-04-12T02:51:13;98472.53;;;13.69;43.88
73870;BME280;64924;42.140;24.762;2023-04-12T02:53:39;98478.72;;;13.64;43.65
73870;BME280;64924;42.140;24.762;2023-04-12T02:56:05;98478.97;;;13.63;43.93
73870;BME280;64924;42.140;24.762;2023-04-12T02:58:32;98484.63;;;13.73;43.61
73870;BME280;64924;42.140;24.762;2023-04-12T03:00:58;98475.00;;;13.70;43.75
73870;BME280;64924;42.140;24.762;2023-04-12T03:03:25;98473.84;;;13.66;44.02
73870;BME280;64924;42.140;24.762;2023-04-12T03:05:51;98477.50;;;13.72;43.81
73870;BME280;64924;42.140;24.762;2023-04-12T03:08:17;98469.56;;;13.70;43.83
73870;BME280;64924;42.140;24.762;2023-04-12T03:10:43;98477.31;;;13.79;43.69
73870;BME280;64924;42.140;24.762;2023-04-12T03:13:09;98438.59;;;13.65;43.71
73870;BME280;64924;42.140;24.762;2023-04-12T03:15:35;98467.47;;;13.78;43.54
73870;BME280;64924;42.140;24.762;2023-04-12T03:18:01;98463.44;;;13.80;43.38
73870;BME280;64924;42.140;24.762;2023-04-12T03:20:26;98463.91;;;13.77;43.37
73870;BME280;64924;42.140;24.762;2023-04-12T03:22:53;98462.59;;;13.80;43.35
73870;BME280;64924;42.140;24.762;2023-04-12T03:25:18;98454.84;;;13.71;43.33
73870;BME280;64924;42.140;24.762;2023-04-12T03:27:44;98467.22;;;13.79;43.05
73870;BME280;64924;42.140;24.762;2023-04-12T03:30:10;98420.63;;;13.52;43.39
73870;BME280;64924;42.140;24.762;2023-04-12T03:32:37;98467.41;;;13.73;43.52
73870;BME280;64924;42.140;24.762;2023-04-12T03:35:03;98448.34;;;13.61;43.66
73870;BME280;64924;42.140;24.762;2023-04-12T03:37:29;98477.75;;;13.70;43.57
73870;BME280;64924;42.140;24.762;2023-04-12T03:39:54;98479.16;;;13.73;43.49
73870;BME280;64924;42.140;24.762;2023-04-12T03:42:20;98479.97;;;13.74;43.04
73870;BME280;64924;42.140;24.762;2023-04-12T03:44:45;98476.00;;;13.81;43.01
73870;BME280;64924;42.140;24.762;2023-04-12T03:47:13;98471.03;;;13.78;42.91
73870;BME280;64924;42.140;24.762;2023-04-12T03:49:38;98482.03;;;13.83;42.51
73870;BME280;64924;42.140;24.762;2023-04-12T03:52:04;98470.28;;;13.83;42.79
73870;BME280;64924;42.140;24.762;2023-04-12T03:54:30;98444.22;;;13.58;42.73
73870;BME280;64924;42.140;24.762;2023-04-12T03:56:56;98471.53;;;13.75;42.77
73870;BME280;64924;42.140;24.762;2023-04-12T03:59:21;98439.34;;;13.60;42.63
73870;BME280;64924;42.140;24.762;2023-04-12T04:01:47;98487.59;;;13.88;42.67
73870;BME280;64924;42.140;24.762;2023-04-12T04:04:12;98476.50;;;13.78;42.83
73870;BME280;64924;42.140;24.762;2023-04-12T04:06:38;98482.38;;;13.87;42.48
73870;BME280;64924;42.140;24.762;2023-04-12T04:09:04;98471.13;;;13.83;42.74
73870;BME280;64924;42.140;24.762;2023-04-12T04:11:30;98477.66;;;13.82;42.74
73870;BME280;64924;42.140;24.762;2023-04-12T04:13:56;98444.84;;;13.49;43.16
73870;BME280;64924;42.140;24.762;2023-04-12T04:16:21;98451.13;;;13.49;43.78
73870;BME280;64924;42.140;24.762;2023-04-12T04:18:47;98449.47;;;13.48;43.91
73870;BME280;64924;42.140;24.762;2023-04-12T04:21:13;98498.16;;;13.68;44.34
73870;BME280;64924;42.140;24.762;2023-04-12T04:23:39;98491.53;;;13.64;44.62
73870;BME280;64924;42.140;24.762;2023-04-12T04:26:05;98483.69;;;13.67;44.34
73870;BME280;64924;42.140;24.762;2023-04-12T04:28:34;98456.25;;;13.46;44.47
73870;BME280;64924;42.140;24.762;2023-04-12T04:31:01;98499.56;;;13.70;44.52
73870;BME280;64924;42.140;24.762;2023-04-12T04:33:33;98492.38;;;13.81;44.38
73870;BME280;64924;42.140;24.762;2023-04-12T04:36:01;98505.31;;;13.86;43.93
73870;BME280;64924;42.140;24.762;2023-04-12T04:38:28;98472.91;;;13.61;43.83
73870;BME280;64924;42.140;24.762;2023-04-12T04:40:57;98514.41;;;13.91;43.81
73870;BME280;64924;42.140;24.762;2023-04-12T04:43:22;98517.50;;;13.95;43.49
73870;BME280;64924;42.140;24.762;2023-04-12T04:45:51;98469.56;;;13.87;43.14
73870;BME280;64924;42.140;24.762;2023-04-12T04:48:18;98508.81;;;14.15;43.08
73870;BME280;64924;42.140;24.762;2023-04-12T04:50:45;98506.16;;;14.03;43.17
73870;BME280;64924;42.140;24.762;2023-04-12T04:53:11;98513.03;;;14.05;42.96
73870;BME280;64924;42.140;24.762;2023-04-12T04:55:36;98505.44;;;14.08;43.18
73870;BME280;64924;42.140;24.762;2023-04-12T04:58:02;98472.38;;;13.92;42.90
73870;BME280;64924;42.140;24.762;2023-04-12T05:00:28;98503.94;;;14.17;42.99
73870;BME280;64924;42.140;24.762;2023-04-12T05:02:54;98514.63;;;14.35;42.94
73870;BME280;64924;42.140;24.762;2023-04-12T05:05:19;98501.16;;;14.45;42.41
73870;BME280;64924;42.140;24.762;2023-04-12T05:07:47;98485.00;;;14.44;42.43
73870;BME280;64924;42.140;24.762;2023-04-12T05:10:13;98510.75;;;14.64;42.07
73870;BME280;64924;42.140;24.762;2023-04-12T05:12:39;98496.81;;;14.66;42.05
73870;BME280;64924;42.140;24.762;2023-04-12T05:15:05;98466.19;;;14.64;41.88
73870;BME280;64924;42.140;24.762;2023-04-12T05:17:31;98509.06;;;15.19;41.58
73870;BME280;64924;42.140;24.762;2023-04-12T05:19:59;98498.47;;;15.49;40.64
73870;BME280;64924;42.140;24.762;2023-04-12T05:22:24;98473.00;;;15.49;40.26
73870;BME280;64924;42.140;24.762;2023-04-12T05:24:50;98505.25;;;15.90;40.09
73870;BME280;64924;42.140;24.762;2023-04-12T05:27:16;98491.59;;;15.68;40.51
73870;BME280;64924;42.140;24.762;2023-04-12T05:29:43;98487.00;;;15.74;40.08
73870;BME280;64924;42.140;24.762;2023-04-12T05:32:08;98510.09;;;15.83;40.48
73870;BME280;64924;42.140;24.762;2023-04-12T05:34:34;98509.59;;;15.86;40.86
73870;BME280;64924;42.140;24.762;2023-04-12T05:37:00;98516.09;;;16.07;40.56
73870;BME280;64924;42.140;24.762;2023-04-12T05:39:26;98524.31;;;16.39;40.18
73870;BME280;64924;42.140;24.762;2023-04-12T05:41:52;98511.19;;;16.41;40.05
73870;BME280;64924;42.140;24.762;2023-04-12T05:44:17;98523.19;;;16.35;40.31
73870;BME280;64924;42.140;24.762;2023-04-12T05:46:43;98497.56;;;16.19;40.79
73870;BME280;64924;42.140;24.762;2023-04-12T05:49:08;98519.03;;;16.27;40.78
73870;BME280;64924;42.140;24.762;2023-04-12T05:51:34;98527.31;;;16.37;40.18
73870;BME280;64924;42.140;24.762;2023-04-12T05:53:59;98489.66;;;16.23;40.58
73870;BME280;64924;42.140;24.762;2023-04-12T05:56:25;98532.13;;;16.52;40.15
73870;BME280;64924;42.140;24.762;2023-04-12T05:58:51;98526.16;;;16.60;40.11
73870;BME280;64924;42.140;24.762;2023-04-12T06:01:17;98511.34;;;16.61;39.93
73870;BME280;64924;42.140;24.762;2023-04-12T06:03:44;98510.50;;;16.93;39.40
73870;BME280;64924;42.140;24.762;2023-04-12T06:06:10;98489.72;;;17.07;39.28
73870;BME280;64924;42.140;24.762;2023-04-12T06:08:36;98507.66;;;17.30;38.84
73870;BME280;64924;42.140;24.762;2023-04-12T06:11:03;98475.78;;;17.24;38.64
73870;BME280;64924;42.140;24.762;2023-04-12T06:13:29;98481.38;;;17.54;37.99
73870;BME280;64924;42.140;24.762;2023-04-12T06:15:54;98513.66;;;17.94;37.34
73870;BME280;64924;42.140;24.762;2023-04-12T06:18:20;98514.00;;;18.18;37.37
73870;BME280;64924;42.140;24.762;2023-04-12T06:20:45;98524.19;;;18.53;36.66
73870;BME280;64924;42.140;24.762;2023-04-12T06:23:11;98521.44;;;18.79;36.00
73870;BME280;64924;42.140;24.762;2023-04-12T06:25:37;98513.69;;;18.96;35.55
73870;BME280;64924;42.140;24.762;2023-04-12T06:28:03;98522.50;;;18.98;35.76
73870;BME280;64924;42.140;24.762;2023-04-12T06:30:28;98516.38;;;19.26;35.17
73870;BME280;64924;42.140;24.762;2023-04-12T06:32:54;98525.50;;;19.17;34.96
73870;BME280;64924;42.140;24.762;2023-04-12T06:35:20;98528.00;;;18.57;36.03
73870;BME280;64924;42.140;24.762;2023-04-12T06:37:45;98533.50;;;18.27;36.88
73870;BME280;64924;42.140;24.762;2023-04-12T06:40:11;98546.34;;;17.91;36.97
73870;BME280;64924;42.140;24.762;2023-04-12T06:42:37;98537.25;;;17.70;37.54
73870;BME280;64924;42.140;24.762;2023-04-12T06:45:03;98532.78;;;17.59;37.97
73870;BME280;64924;42.140;24.762;2023-04-12T06:47:29;98530.50;;;17.46;38.54
73870;BME280;64924;42.140;24.762;2023-04-12T06:49:55;98537.13;;;17.55;38.36
73870;BME280;64924;42.140;24.762;2023-04-12T06:52:23;98529.69;;;17.50;38.68
73870;BME280;64924;42.140;24.762;2023-04-12T06:54:50;98538.13;;;17.28;38.57
73870;BME280;64924;42.140;24.762;2023-04-12T06:57:15;98534.81;;;17.26;38.61
73870;BME280;64924;42.140;24.762;2023-04-12T06:59:41;98537.31;;;17.28;37.97
73870;BME280;64924;42.140;24.762;2023-04-12T07:02:06;98531.47;;;17.14;37.71
73870;BME280;64924;42.140;24.762;2023-04-12T07:04:32;98548.75;;;17.15;37.58
73870;BME280;64924;42.140;24.762;2023-04-12T07:06:57;98510.19;;;16.89;37.51
73870;BME280;64924;42.140;24.762;2023-04-12T07:09:23;98556.13;;;17.09;37.81
73870;BME280;64924;42.140;24.762;2023-04-12T07:11:48;98552.25;;;17.00;37.32
73870;BME280;64924;42.140;24.762;2023-04-12T07:14:14;98544.84;;;17.00;36.36
73870;BME280;64924;42.140;24.762;2023-04-12T07:16:41;98531.91;;;16.96;35.68
73870;BME280;64924;42.140;24.762;2023-04-12T07:19:06;98553.84;;;17.38;35.42
73870;BME280;64924;42.140;24.762;2023-04-12T07:21:32;98535.53;;;17.64;35.27
73870;BME280;64924;42.140;24.762;2023-04-12T07:23:57;98527.69;;;17.93;34.05
73870;BME280;64924;42.140;24.762;2023-04-12T07:26:23;98526.38;;;18.36;33.00
73870;BME280;64924;42.140;24.762;2023-04-12T07:28:48;98534.66;;;18.72;30.90
73870;BME280;64924;42.140;24.762;2023-04-12T07:31:14;98535.19;;;18.43;30.37
73870;BME280;64924;42.140;24.762;2023-04-12T07:33:40;98497.19;;;18.04;30.97
73870;BME280;64924;42.140;24.762;2023-04-12T07:36:05;98524.19;;;18.68;30.01
73870;BME280;64924;42.140;24.762;2023-04-12T07:38:31;98523.88;;;19.00;29.28
73870;BME280;64924;42.140;24.762;2023-04-12T07:40:57;98540.31;;;20.00;27.66
73870;BME280;64924;42.140;24.762;2023-04-12T07:43:22;98532.56;;;20.81;26.01
73870;BME280;64924;42.140;24.762;2023-04-12T07:45:48;98525.03;;;21.44;25.14
73870;BME280;64924;42.140;24.762;2023-04-12T07:48:13;98517.69;;;22.20;24.35
73870;BME280;64924;42.140;24.762;2023-04-12T07:50:39;98512.75;;;23.14;23.42
73870;BME280;64924;42.140;24.762;2023-04-12T07:53:23;98517.09;;;23.48;23.00
73870;BME280;64924;42.140;24.762;2023-04-12T07:55:49;98503.56;;;23.74;22.02
73870;BME280;64924;42.140;24.762;2023-04-12T07:58:16;98505.66;;;23.90;21.79
73870;BME280;64924;42.140;24.762;2023-04-12T08:00:44;98502.84;;;23.68;21.90
73870;BME280;64924;42.140;24.762;2023-04-12T08:03:12;98489.84;;;23.77;21.89
73870;BME280;64924;42.140;24.762;2023-04-12T08:05:38;98487.16;;;24.58;21.08
73870;BME280;64924;42.140;24.762;2023-04-12T08:08:04;98489.13;;;24.88;21.20
73870;BME280;64924;42.140;24.762;2023-04-12T08:10:30;98487.69;;;24.38;21.64
73870;BME280;64924;42.140;24.762;2023-04-12T08:12:56;98479.59;;;24.14;22.09
73870;BME280;64924;42.140;24.762;2023-04-12T08:15:22;98499.41;;;23.16;23.53
73870;BME280;64924;42.140;24.762;2023-04-12T08:17:47;98478.56;;;23.46;23.60
73870;BME280;64924;42.140;24.762;2023-04-12T08:20:13;98475.94;;;23.69;23.19
73870;BME280;64924;42.140;24.762;2023-04-12T08:22:43;98480.72;;;22.94;24.17
73870;BME280;64924;42.140;24.762;2023-04-12T08:25:09;98453.56;;;21.75;25.48
73870;BME280;64924;42.140;24.762;2023-04-12T08:27:35;98492.81;;;21.34;25.82
73870;BME280;64924;42.140;24.762;2023-04-12T08:30:01;98489.16;;;21.15;26.33
73870;BME280;64924;42.140;24.762;2023-04-12T08:32:27;98478.81;;;20.73;26.67
73870;BME280;64924;42.140;24.762;2023-04-12T08:34:53;98483.88;;;20.27;27.17
73870;BME280;64924;42.140;24.762;2023-04-12T08:37:19;98468.94;;;19.94;27.40
73870;BME280;64924;42.140;24.762;2023-04-12T08:39:45;98478.47;;;20.12;27.65
73870;BME280;64924;42.140;24.762;2023-04-12T08:42:12;98467.66;;;20.20;27.38
73870;BME280;64924;42.140;24.762;2023-04-12T08:44:39;98433.53;;;20.74;26.70
73870;BME280;64924;42.140;24.762;2023-04-12T08:47:06;98450.00;;;21.32;25.79
73870;BME280;64924;42.140;24.762;2023-04-12T08:49:33;98462.00;;;21.22;25.76
73870;BME280;64924;42.140;24.762;2023-04-12T08:52:08;98461.41;;;21.25;25.81
73870;BME280;64924;42.140;24.762;2023-04-12T08:54:35;98473.28;;;21.50;25.74
73870;BME280;64924;42.140;24.762;2023-04-12T08:57:02;98421.63;;;21.26;25.44
73870;BME280;64924;42.140;24.762;2023-04-12T08:59:29;98457.72;;;20.82;26.22
73870;BME280;64924;42.140;24.762;2023-04-12T09:01:57;98469.81;;;20.62;26.89
73870;BME280;64924;42.140;24.762;2023-04-12T09:04:23;98468.25;;;20.51;27.49
73870;BME280;64924;42.140;24.762;2023-04-12T09:06:50;98439.53;;;20.52;27.27
73870;BME280;64924;42.140;24.762;2023-04-12T09:09:16;98462.88;;;21.42;26.67
73870;BME280;64924;42.140;24.762;2023-04-12T09:11:42;98471.63;;;21.49;26.11
73870;BME280;64924;42.140;24.762;2023-04-12T09:14:21;98465.16;;;21.34;26.26
73870;BME280;64924;42.140;24.762;2023-04-12T09:16:47;98455.34;;;21.47;25.71
73870;BME280;64924;42.140;24.762;2023-04-12T09:19:13;98461.22;;;21.83;25.40
73870;BME280;64924;42.140;24.762;2023-04-12T09:21:55;98457.25;;;22.08;25.87
73870;BME280;64924;42.140;24.762;2023-04-12T09:24:20;98416.25;;;21.54;25.85
73870;BME280;64924;42.140;24.762;2023-04-12T09:27:09;98456.69;;;21.68;25.96
73870;BME280;64924;42.140;24.762;2023-04-12T09:29:35;98442.53;;;21.32;26.86
73870;BME280;64924;42.140;24.762;2023-04-12T09:32:03;98451.75;;;20.75;27.66
73870;BME280;64924;42.140;24.762;2023-04-12T09:34:30;98454.97;;;20.82;27.61
73870;BME280;64924;42.140;24.762;2023-04-12T09:36:56;98459.06;;;21.14;27.36
73870;BME280;64924;42.140;24.762;2023-04-12T09:39:42;98430.00;;;21.40;26.83
73870;BME280;64924;42.140;24.762;2023-04-12T09:42:10;98423.81;;;21.48;26.86
73870;BME280;64924;42.140;24.762;2023-04-12T09:44:36;98414.94;;;21.51;26.47
73870;BME280;64924;42.140;24.762;2023-04-12T09:47:02;98422.72;;;21.25;26.29
73870;BME280;64924;42.140;24.762;2023-04-12T09:49:40;98415.97;;;21.37;26.12
73870;BME280;64924;42.140;24.762;2023-04-12T09:52:07;98386.19;;;20.86;26.78
73870;BME280;64924;42.140;24.762;2023-04-12T09:54:41;98424.00;;;20.85;26.67
73870;BME280;64924;42.140;24.762;2023-04-12T09:57:08;98417.94;;;20.59;26.82
73870;BME280;64924;42.140;24.762;2023-04-12T09:59:38;98403.50;;;20.67;26.47
73870;BME280;64924;42.140;24.762;2023-04-12T10:02:11;98398.22;;;20.71;26.67
73870;BME280;64924;42.140;24.762;2023-04-12T10:04:38;98371.03;;;20.59;25.95
73870;BME280;64924;42.140;24.762;2023-04-12T10:07:05;98396.16;;;20.58;24.95
73870;BME280;64924;42.140;24.762;2023-04-12T10:09:32;98393.00;;;20.69;24.63
73870;BME280;64924;42.140;24.762;2023-04-12T10:12:00;98379.00;;;20.85;24.57
73870;BME280;64924;42.140;24.762;2023-04-12T10:14:29;98389.34;;;20.98;23.39
73870;BME280;64924;42.140;24.762;2023-04-12T10:17:02;98383.66;;;21.13;23.41
73870;BME280;64924;42.140;24.762;2023-04-12T10:19:29;98348.91;;;21.07;23.82
73870;BME280;64924;42.140;24.762;2023-04-12T10:21:56;98387.22;;;21.38;23.45
73870;BME280;64924;42.140;24.762;2023-04-12T10:24:25;98396.63;;;21.37;23.13
73870;BME280;64924;42.140;24.762;2023-04-12T10:26:54;98391.78;;;21.47;22.76
73870;BME280;64924;42.140;24.762;2023-04-12T10:29:24;98374.38;;;21.47;23.19
73870;BME280;64924;42.140;24.762;2023-04-12T10:31:51;98347.63;;;21.23;23.10
73870;BME280;64924;42.140;24.762;2023-04-12T10:34:22;98383.03;;;21.59;23.23
73870;BME280;64924;42.140;24.762;2023-04-12T10:36:55;98343.75;;;21.43;22.99
73870;BME280;64924;42.140;24.762;2023-04-12T10:39:38;98382.56;;;21.33;22.95
73870;BME280;64924;42.140;24.762;2023-04-12T10:42:28;98371.84;;;20.84;23.03
73870;BME280;64924;42.140;24.762;2023-04-12T10:44:56;98356.28;;;20.69;23.33
73870;BME280;64924;42.140;24.762;2023-04-12T10:50:30;98358.31;;;21.49;22.46
73870;BME280;64924;42.140;24.762;2023-04-12T10:53:19;98375.44;;;21.51;22.56
73870;BME280;64924;42.140;24.762;2023-04-12T10:55:46;98369.00;;;21.37;22.02
73870;BME280;64924;42.140;24.762;2023-04-12T11:01:12;98370.88;;;21.17;22.60
73870;BME280;64924;42.140;24.762;2023-04-12T11:04:17;98390.47;;;20.97;22.79
73870;BME280;64924;42.140;24.762;2023-04-12T11:06:58;98389.72;;;20.67;23.75
73870;BME280;64924;42.140;24.762;2023-04-12T11:14:45;98396.19;;;20.53;24.66
73870;BME280;64924;42.140;24.762;2023-04-12T11:19:50;98406.16;;;20.20;25.39
73870;BME280;64924;42.140;24.762;2023-04-12T11:22:18;98392.44;;;20.10;24.88
73870;BME280;64924;42.140;24.762;2023-04-12T11:24:52;98410.78;;;19.95;24.60
73870;BME280;64924;42.140;24.762;2023-04-12T11:27:19;98408.53;;;19.63;25.13
73870;BME280;64924;42.140;24.762;2023-04-12T11:29:50;98407.19;;;19.56;25.39
73870;BME280;64924;42.140;24.762;2023-04-12T11:32:17;98374.16;;;19.46;25.04
73870;BME280;64924;42.140;24.762;2023-04-12T11:34:44;98393.19;;;19.86;25.58
73870;BME280;64924;42.140;24.762;2023-04-12T11:37:10;98403.63;;;20.23;25.14
73870;BME280;64924;42.140;24.762;2023-04-12T11:39:44;98368.59;;;20.53;24.75
73870;BME280;64924;42.140;24.762;2023-04-12T11:42:17;98375.06;;;20.91;23.97
73870;BME280;64924;42.140;24.762;2023-04-12T11:44:44;98371.38;;;21.00;24.19
73870;BME280;64924;42.140;24.762;2023-04-12T11:47:18;98373.50;;;20.85;23.29
73870;BME280;64924;42.140;24.762;2023-04-12T11:49:48;98370.50;;;20.57;22.22
73870;BME280;64924;42.140;24.762;2023-04-12T11:52:15;98375.72;;;20.59;22.69
73870;BME280;64924;42.140;24.762;2023-04-12T11:54:46;98352.72;;;20.68;22.40
73870;BME280;64924;42.140;24.762;2023-04-12T11:57:13;98374.31;;;20.61;22.55
73870;BME280;64924;42.140;24.762;2023-04-12T11:59:42;98374.41;;;20.51;22.87
73870;BME280;64924;42.140;24.762;2023-04-12T12:02:08;98377.41;;;20.26;23.32
73870;BME280;64924;42.140;24.762;2023-04-12T12:04:34;98379.25;;;20.41;23.61
73870;BME280;64924;42.140;24.762;2023-04-12T12:06:59;98377.22;;;20.75;23.45
73870;BME280;64924;42.140;24.762;2023-04-12T12:09:25;98372.91;;;21.12;22.99
73870;BME280;64924;42.140;24.762;2023-04-12T12:11:54;98358.78;;;21.13;22.55
73870;BME280;64924;42.140;24.762;2023-04-12T12:14:21;98371.88;;;21.26;22.52
73870;BME280;64924;42.140;24.762;2023-04-12T12:16:57;98372.88;;;21.35;22.13
73870;BME280;64924;42.140;24.762;2023-04-12T12:22:11;98383.41;;;21.33;21.76
73870;BME280;64924;42.140;24.762;2023-04-12T12:24:38;98376.66;;;21.21;21.24
73870;BME280;64924;42.140;24.762;2023-04-12T12:27:04;98355.50;;;21.11;21.18
73870;BME280;64924;42.140;24.762;2023-04-12T12:29:36;98357.47;;;21.29;21.13
73870;BME280;64924;42.140;24.762;2023-04-12T12:32:09;98345.84;;;21.32;20.92
73870;BME280;64924;42.140;24.762;2023-04-12T12:34:35;98342.31;;;21.27;20.73
73870;BME280;64924;42.140;24.762;2023-04-12T12:37:00;98353.00;;;21.33;20.52
73870;BME280;64924;42.140;24.762;2023-04-12T12:39:26;98371.81;;;21.31;20.66
73870;BME280;64924;42.140;24.762;2023-04-12T12:41:54;98360.84;;;21.26;20.43
73870;BME280;64924;42.140;24.762;2023-04-12T12:44:23;98355.38;;;21.21;20.31
73870;BME280;64924;42.140;24.762;2023-04-12T12:46:49;98359.53;;;21.19;20.59
73870;BME280;64924;42.140;24.762;2023-04-12T12:49:15;98354.09;;;20.90;20.32
73870;BME280;64924;42.140;24.762;2023-04-12T12:51:41;98360.09;;;20.97;20.76
73870;BME280;64924;42.140;24.762;2023-04-12T12:54:07;98345.81;;;20.90;20.90
73870;BME280;64924;42.140;24.762;2023-04-12T12:56:32;98356.53;;;20.73;21.03
73870;BME280;64924;42.140;24.762;2023-04-12T12:59:00;98354.19;;;20.61;20.60
73870;BME280;64924;42.140;24.762;2023-04-12T13:01:26;98367.16;;;20.60;20.23
73870;BME280;64924;42.140;24.762;2023-04-12T13:03:52;98353.13;;;20.57;20.21
73870;BME280;64924;42.140;24.762;2023-04-12T13:06:17;98327.84;;;20.16;20.19
73870;BME280;64924;42.140;24.762;2023-04-12T13:08:43;98361.03;;;20.40;19.92
73870;BME280;64924;42.140;24.762;2023-04-12T13:11:08;98350.06;;;20.58;21.00
73870;BME280;64924;42.140;24.762;2023-04-12T13:13:34;98338.16;;;20.63;20.65
73870;BME280;64924;42.140;24.762;2023-04-12T13:15:59;98343.78;;;20.77;20.04
73870;BME280;64924;42.140;24.762;2023-04-12T13:18:25;98338.59;;;20.94;19.85
73870;BME280;64924;42.140;24.762;2023-04-12T13:20:50;98323.72;;;20.90;19.51
73870;BME280;64924;42.140;24.762;2023-04-12T13:23:16;98338.09;;;21.11;19.90
73870;BME280;64924;42.140;24.762;2023-04-12T13:25:41;98337.13;;;21.20;19.90
73870;BME280;64924;42.140;24.762;2023-04-12T13:28:07;98341.41;;;21.13;19.58